createdAt,value
2018-07-16T00:00:26.085Z,0.00
2018-07-16T00:01:26.102Z,0.00
2018-07-16T00:02:26.121Z,0.00
2018-07-16T00:03:26.137Z,0.00
2018-07-16T00:04:26.168Z,0.00
2018-07-16T00:05:26.258Z,0.00
2018-07-16T00:06:26.194Z,0.00
2018-07-16T00:07:26.159Z,0.00
2018-07-16T00:08:26.233Z,0.00
2018-07-16T00:09:26.214Z,0.00
2018-07-16T00:10:26.334Z,0.00
2018-07-16T00:11:26.235Z,0.00
2018-07-16T00:12:26.249Z,0.00
2018-07-16T00:13:26.261Z,0.00
2018-07-16T00:14:26.270Z,0.00
2018-07-16T00:15:26.278Z,0.00
2018-07-16T00:16:26.391Z,0.00
2018-07-16T00:17:26.350Z,0.00
2018-07-16T00:18:26.330Z,0.00
2018-07-16T00:19:26.352Z,0.00
2018-07-16T00:20:26.380Z,0.00
2018-07-16T00:21:26.381Z,0.00
2018-07-16T00:22:26.494Z,0.00
2018-07-16T00:23:26.384Z,0.00
2018-07-16T00:24:26.425Z,0.00
2018-07-16T00:25:26.393Z,0.00
2018-07-16T00:26:26.429Z,0.00
2018-07-16T00:27:26.436Z,0.00
2018-07-16T00:28:26.596Z,0.00
2018-07-16T00:29:26.470Z,0.00
2018-07-16T00:30:26.491Z,0.00
2018-07-16T00:31:26.470Z,0.00
2018-07-16T00:32:26.496Z,0.00
2018-07-16T00:33:26.590Z,0.00
2018-07-16T00:34:26.513Z,0.00
2018-07-16T00:35:26.535Z,0.00
2018-07-16T00:36:26.596Z,0.00
2018-07-16T00:37:26.624Z,0.00
2018-07-16T00:38:26.800Z,0.00
2018-07-16T00:39:26.591Z,0.00
2018-07-16T00:40:26.607Z,0.00
2018-07-16T00:41:26.625Z,0.00
2018-07-16T00:42:26.651Z,0.00
2018-07-16T00:43:26.838Z,0.00
2018-07-16T00:44:26.759Z,0.00
2018-07-16T00:45:26.680Z,0.00
2018-07-16T00:46:26.725Z,0.00
2018-07-16T00:47:26.725Z,0.00
2018-07-16T00:48:26.834Z,0.00
2018-07-16T00:49:26.720Z,0.00
2018-07-16T00:50:26.771Z,0.00
2018-07-16T00:51:26.742Z,0.00
2018-07-16T00:52:26.784Z,0.00
2018-07-16T00:53:26.968Z,0.00
2018-07-16T00:54:26.776Z,0.00
2018-07-16T00:55:26.853Z,0.00
2018-07-16T00:56:26.854Z,0.00
2018-07-16T00:57:26.843Z,0.00
2018-07-16T00:58:27.019Z,0.00
2018-07-16T00:59:26.886Z,0.00
2018-07-16T01:00:26.871Z,0.00
2018-07-16T01:01:26.895Z,0.00
2018-07-16T01:02:26.885Z,0.00
2018-07-16T01:03:26.897Z,0.00
2018-07-16T01:04:27.075Z,0.00
2018-07-16T01:05:26.927Z,0.00
2018-07-16T01:06:27.002Z,0.00
2018-07-16T01:07:26.959Z,0.00
2018-07-16T01:08:26.955Z,0.00
2018-07-16T01:09:27.071Z,0.00
2018-07-16T01:10:27.008Z,0.00
2018-07-16T01:11:27.036Z,0.00
2018-07-16T01:12:27.071Z,0.00
2018-07-16T01:13:27.055Z,0.00
2018-07-16T01:14:27.145Z,0.00
2018-07-16T01:15:27.046Z,0.00
2018-07-16T01:16:27.085Z,0.00
2018-07-16T01:17:27.102Z,0.00
2018-07-16T01:18:27.109Z,0.00
2018-07-16T01:19:27.223Z,0.00
2018-07-16T01:20:27.155Z,0.00
2018-07-16T01:21:27.129Z,0.00
2018-07-16T01:22:27.136Z,0.00
2018-07-16T01:23:27.131Z,0.00
2018-07-16T01:24:27.271Z,0.00
2018-07-16T01:25:27.164Z,0.00
2018-07-16T01:26:27.223Z,0.00
2018-07-16T01:27:27.213Z,0.00
2018-07-16T01:28:27.228Z,0.00
2018-07-16T01:29:27.370Z,0.00
2018-07-16T01:30:27.268Z,0.00
2018-07-16T01:31:27.237Z,0.00
2018-07-16T01:32:27.257Z,0.00
2018-07-16T01:33:27.262Z,0.00
2018-07-16T01:34:27.287Z,0.00
2018-07-16T01:35:27.411Z,0.00
2018-07-16T01:36:27.328Z,0.00
2018-07-16T01:37:27.305Z,0.00
2018-07-16T01:38:27.366Z,0.00
2018-07-16T01:39:27.375Z,0.00
2018-07-16T01:40:27.539Z,0.00
2018-07-16T01:41:27.384Z,0.00
2018-07-16T01:42:27.376Z,0.00
2018-07-16T01:44:27.497Z,0.00
2018-07-16T01:45:27.469Z,0.00
2018-07-16T01:46:27.563Z,0.00
2018-07-16T01:47:27.449Z,0.00
2018-07-16T01:48:27.478Z,0.00
2018-07-16T01:49:27.485Z,0.00
2018-07-16T01:50:27.522Z,0.00
2018-07-16T01:51:27.645Z,0.00
2018-07-16T01:52:27.515Z,0.00
2018-07-16T01:53:27.581Z,0.00
2018-07-16T01:54:27.529Z,0.00
2018-07-16T01:55:27.620Z,0.00
2018-07-16T01:56:27.653Z,0.00
2018-07-16T01:57:27.599Z,0.00
2018-07-16T01:58:27.593Z,0.00
2018-07-16T01:59:27.618Z,0.00
2018-07-16T02:00:27.655Z,0.00
2018-07-16T02:01:27.720Z,0.00
2018-07-16T02:02:27.675Z,0.00
2018-07-16T02:03:27.691Z,0.00
2018-07-16T02:04:27.667Z,0.00
2018-07-16T02:05:27.661Z,0.00
2018-07-16T02:06:27.851Z,0.00
2018-07-16T02:07:27.757Z,0.00
2018-07-16T02:09:27.720Z,0.00
2018-07-16T02:10:27.744Z,0.00
2018-07-16T02:11:27.753Z,0.00
2018-07-16T02:12:27.849Z,0.00
2018-07-16T02:13:27.777Z,0.00
2018-07-16T02:14:27.773Z,0.00
2018-07-16T02:15:27.793Z,0.00
2018-07-16T02:16:27.793Z,0.00
2018-07-16T02:17:27.999Z,0.00
2018-07-16T02:18:27.853Z,0.00
2018-07-16T02:19:27.821Z,0.00
2018-07-16T02:20:27.831Z,0.00
2018-07-16T02:21:27.857Z,0.00
2018-07-16T02:22:27.980Z,0.00
2018-07-16T02:23:27.899Z,0.00
2018-07-16T02:24:27.878Z,0.00
2018-07-16T02:25:27.908Z,0.00
2018-07-16T02:26:27.919Z,0.00
2018-07-16T02:27:28.077Z,0.00
2018-07-16T02:28:27.939Z,0.00
2018-07-16T02:29:27.926Z,0.00
2018-07-16T02:30:27.993Z,0.00
2018-07-16T02:31:28.037Z,0.00
2018-07-16T02:32:28.127Z,0.00
2018-07-16T02:33:28.007Z,0.00
2018-07-16T02:34:28.120Z,0.00
2018-07-16T02:35:28.001Z,0.00
2018-07-16T02:36:28.078Z,0.00
2018-07-16T02:37:28.208Z,0.00
2018-07-16T02:38:28.082Z,0.00
2018-07-16T02:39:28.073Z,0.00
2018-07-16T02:40:28.084Z,0.00
2018-07-16T02:41:28.097Z,0.00
2018-07-16T02:42:28.285Z,0.00
2018-07-16T02:43:28.100Z,0.00
2018-07-16T02:44:28.122Z,0.00
2018-07-16T02:45:28.181Z,0.00
2018-07-16T02:46:28.150Z,0.00
2018-07-16T02:47:28.319Z,0.00
2018-07-16T02:48:28.165Z,0.00
2018-07-16T02:49:28.166Z,0.00
2018-07-16T02:50:28.185Z,0.00
2018-07-16T02:51:28.222Z,0.00
2018-07-16T02:52:28.339Z,0.00
2018-07-16T02:53:28.237Z,0.00
2018-07-16T02:54:28.282Z,0.00
2018-07-16T02:55:28.237Z,0.00
2018-07-16T02:56:28.352Z,0.00
2018-07-16T02:57:28.277Z,0.00
2018-07-16T02:58:28.402Z,0.00
2018-07-16T02:59:28.310Z,0.00
2018-07-16T03:00:28.357Z,0.00
2018-07-16T03:01:28.332Z,0.00
2018-07-16T03:02:28.349Z,0.00
2018-07-16T03:03:28.500Z,0.00
2018-07-16T03:04:28.377Z,0.00
2018-07-16T03:05:28.378Z,0.00
2018-07-16T03:06:28.398Z,0.00
2018-07-16T03:07:28.507Z,0.00
2018-07-16T03:08:28.566Z,0.00
2018-07-16T03:09:28.420Z,0.00
2018-07-16T03:10:28.429Z,0.00
2018-07-16T03:11:28.436Z,0.00
2018-07-16T03:12:28.455Z,0.00
2018-07-16T03:13:28.585Z,0.00
2018-07-16T03:14:28.475Z,0.00
2018-07-16T03:15:28.494Z,0.00
2018-07-16T03:16:28.538Z,0.00
2018-07-16T03:17:28.535Z,0.00
2018-07-16T03:18:28.625Z,0.00
2018-07-16T03:19:28.547Z,0.00
2018-07-16T03:20:28.558Z,0.00
2018-07-16T03:21:28.609Z,0.00
2018-07-16T03:22:28.553Z,0.00
2018-07-16T03:23:28.694Z,0.00
2018-07-16T03:24:28.616Z,0.00
2018-07-16T03:25:28.612Z,0.00
2018-07-16T03:26:28.627Z,0.00
2018-07-16T03:27:28.620Z,0.00
2018-07-16T03:28:28.807Z,0.00
2018-07-16T03:29:28.655Z,0.00
2018-07-16T03:30:28.656Z,0.00
2018-07-16T03:31:28.725Z,0.00
2018-07-16T03:32:28.800Z,0.00
2018-07-16T03:33:28.818Z,0.00
2018-07-16T03:34:28.824Z,0.00
2018-07-16T03:35:28.709Z,0.00
2018-07-16T03:36:28.781Z,0.00
2018-07-16T03:37:28.787Z,0.00
2018-07-16T03:38:28.891Z,0.00
2018-07-16T03:39:28.807Z,0.00
2018-07-16T03:40:28.783Z,0.00
2018-07-16T03:41:28.805Z,0.00
2018-07-16T03:42:28.792Z,0.00
2018-07-16T03:43:28.919Z,0.00
2018-07-16T03:44:28.843Z,0.00
2018-07-16T03:45:28.848Z,0.00
2018-07-16T03:46:28.867Z,0.00
2018-07-16T03:47:28.868Z,0.00
2018-07-16T03:48:28.968Z,0.00
2018-07-16T03:49:28.936Z,0.00
2018-07-16T03:50:28.938Z,0.00
2018-07-16T03:51:28.952Z,0.00
2018-07-16T03:52:28.907Z,0.00
2018-07-16T03:53:28.915Z,0.00
2018-07-16T03:54:29.094Z,0.00
2018-07-16T03:55:28.952Z,0.00
2018-07-16T03:56:29.013Z,0.00
2018-07-16T03:57:28.980Z,0.00
2018-07-16T03:58:28.989Z,0.00
2018-07-16T03:59:29.015Z,0.00
2018-07-16T04:00:29.096Z,0.00
2018-07-16T04:01:29.063Z,0.00
2018-07-16T04:02:29.057Z,0.00
2018-07-16T04:03:29.042Z,0.00
2018-07-16T04:04:29.063Z,0.00
2018-07-16T04:05:29.184Z,0.00
2018-07-16T04:06:29.067Z,0.00
2018-07-16T04:07:29.112Z,0.00
2018-07-16T04:08:29.114Z,0.00
2018-07-16T04:09:29.227Z,0.00
2018-07-16T04:10:29.123Z,0.00
2018-07-16T04:11:29.271Z,0.00
2018-07-16T04:12:29.150Z,0.00
2018-07-16T04:13:29.164Z,0.00
2018-07-16T04:14:29.213Z,0.00
2018-07-16T04:15:29.184Z,0.00
2018-07-16T04:16:29.362Z,0.00
2018-07-16T04:17:29.207Z,0.00
2018-07-16T04:18:29.264Z,0.00
2018-07-16T04:19:29.242Z,0.00
2018-07-16T04:20:29.238Z,0.00
2018-07-16T04:21:29.291Z,0.00
2018-07-16T04:22:29.413Z,0.00
2018-07-16T04:23:29.308Z,0.00
2018-07-16T04:24:29.277Z,0.00
2018-07-16T04:25:29.301Z,0.00
2018-07-16T04:26:29.310Z,0.00
2018-07-16T04:27:29.335Z,0.00
2018-07-16T04:28:29.499Z,0.00
2018-07-16T04:29:29.389Z,0.00
2018-07-16T04:30:29.391Z,0.00
2018-07-16T04:31:29.349Z,0.00
2018-07-16T04:32:29.381Z,0.00
2018-07-16T04:33:29.481Z,0.00
2018-07-16T04:34:29.390Z,0.00
2018-07-16T04:35:29.432Z,0.00
2018-07-16T04:36:29.420Z,0.00
2018-07-16T04:37:29.432Z,0.00
2018-07-16T04:38:29.565Z,0.00
2018-07-16T04:39:29.444Z,0.00
2018-07-16T04:40:29.468Z,0.00
2018-07-16T04:41:29.474Z,0.00
2018-07-16T04:42:29.502Z,0.00
2018-07-16T04:43:29.666Z,0.00
2018-07-16T04:44:29.500Z,0.00
2018-07-16T04:45:29.567Z,0.00
2018-07-16T04:46:29.546Z,0.00
2018-07-16T04:47:29.546Z,0.00
2018-07-16T04:48:29.754Z,0.00
2018-07-16T04:49:29.568Z,0.00
2018-07-16T04:50:29.582Z,0.00
2018-07-16T04:51:29.645Z,0.00
2018-07-16T04:52:29.611Z,0.00
2018-07-16T04:53:29.731Z,0.00
2018-07-16T04:54:29.623Z,0.00
2018-07-16T04:55:29.636Z,0.00
2018-07-16T04:56:29.695Z,0.00
2018-07-16T04:57:29.660Z,0.00
2018-07-16T04:58:29.771Z,0.00
2018-07-16T04:59:29.725Z,0.00
2018-07-16T05:00:29.688Z,0.00
2018-07-16T05:01:29.699Z,0.00
2018-07-16T05:02:29.707Z,0.00
2018-07-16T05:03:29.810Z,0.00
2018-07-16T05:04:29.751Z,0.00
2018-07-16T05:05:29.750Z,0.00
2018-07-16T05:06:29.768Z,0.00
2018-07-16T05:07:29.775Z,0.00
2018-07-16T05:08:29.893Z,0.00
2018-07-16T05:09:29.799Z,0.00
2018-07-16T05:10:29.843Z,0.00
2018-07-16T05:11:29.799Z,0.00
2018-07-16T05:12:29.819Z,0.00
2018-07-16T05:13:29.944Z,0.00
2018-07-16T05:14:29.851Z,0.00
2018-07-16T05:15:29.850Z,0.00
2018-07-16T05:16:29.868Z,0.00
2018-07-16T05:17:29.889Z,0.00
2018-07-16T05:18:30.046Z,0.00
2018-07-16T05:19:30.071Z,0.00
2018-07-16T05:20:29.931Z,0.00
2018-07-16T05:21:29.916Z,0.00
2018-07-16T05:22:29.949Z,0.00
2018-07-16T05:23:29.950Z,0.00
2018-07-16T05:24:29.971Z,0.00
2018-07-16T05:25:30.075Z,0.00
2018-07-16T05:26:29.996Z,0.00
2018-07-16T05:27:29.988Z,0.00
2018-07-16T05:28:30.011Z,0.00
2018-07-16T05:29:30.031Z,0.00
2018-07-16T05:30:30.143Z,0.00
2018-07-16T05:31:30.202Z,0.00
2018-07-16T05:32:30.197Z,0.00
2018-07-16T05:33:30.058Z,0.00
2018-07-16T05:34:30.122Z,0.00
2018-07-16T05:35:30.097Z,0.00
2018-07-16T05:36:30.242Z,0.00
2018-07-16T05:37:30.104Z,0.00
2018-07-16T05:38:30.115Z,0.00
2018-07-16T05:39:30.126Z,0.00
2018-07-16T05:40:30.136Z,0.00
2018-07-16T05:41:30.255Z,0.00
2018-07-16T05:42:30.141Z,0.00
2018-07-16T05:43:30.182Z,0.00
2018-07-16T05:44:30.221Z,0.00
2018-07-16T05:45:30.174Z,0.00
2018-07-16T05:46:30.225Z,0.00
2018-07-16T05:47:30.358Z,0.00
2018-07-16T05:48:30.215Z,0.00
2018-07-16T05:49:30.242Z,0.00
2018-07-16T05:50:30.248Z,0.00
2018-07-16T05:51:30.255Z,0.00
2018-07-16T05:52:30.420Z,0.00
2018-07-16T05:53:30.261Z,0.00
2018-07-16T05:54:30.279Z,0.00
2018-07-16T05:55:30.420Z,0.00
2018-07-16T05:56:30.307Z,0.00
2018-07-16T05:57:30.436Z,0.00
2018-07-16T05:58:30.360Z,0.00
2018-07-16T05:59:30.338Z,0.00
2018-07-16T06:00:30.339Z,0.00
2018-07-16T06:01:30.368Z,0.00
2018-07-16T06:02:30.529Z,0.00
2018-07-16T06:03:30.382Z,0.00
2018-07-16T06:04:30.402Z,0.00
2018-07-16T06:05:30.400Z,0.00
2018-07-16T06:06:30.426Z,0.00
2018-07-16T06:07:30.637Z,0.00
2018-07-16T06:08:30.556Z,0.00
2018-07-16T06:09:30.449Z,0.00
2018-07-16T06:10:30.466Z,0.00
2018-07-16T06:11:30.488Z,0.00
2018-07-16T06:12:30.565Z,0.00
2018-07-16T06:13:30.503Z,0.00
2018-07-16T06:14:30.587Z,0.00
2018-07-16T06:15:30.531Z,0.00
2018-07-16T06:16:30.527Z,0.00
2018-07-16T06:17:30.647Z,0.00
2018-07-16T06:18:30.553Z,0.00
2018-07-16T06:19:30.579Z,0.00
2018-07-16T06:20:30.566Z,0.00
2018-07-16T06:21:30.590Z,0.00
2018-07-16T06:22:30.695Z,0.00
2018-07-16T06:23:30.618Z,0.00
2018-07-16T06:24:30.622Z,0.00
2018-07-16T06:25:30.628Z,0.00
2018-07-16T06:26:30.645Z,0.00
2018-07-16T06:27:30.752Z,0.00
2018-07-16T06:28:30.662Z,0.00
2018-07-16T06:29:30.680Z,0.00
2018-07-16T06:30:30.695Z,0.00
2018-07-16T06:31:30.701Z,0.00
2018-07-16T06:32:30.833Z,0.00
2018-07-16T06:33:30.721Z,0.00
2018-07-16T06:34:30.727Z,0.00
2018-07-16T06:35:30.765Z,0.00
2018-07-16T06:36:30.743Z,0.00
2018-07-16T06:37:30.749Z,0.00
2018-07-16T06:38:30.862Z,0.00
2018-07-16T06:39:30.906Z,0.00
2018-07-16T06:40:30.985Z,0.00
2018-07-16T06:41:31.379Z,0.00
2018-07-16T06:42:30.808Z,0.00
2018-07-16T06:43:30.833Z,0.00
2018-07-16T06:44:31.100Z,0.00
2018-07-16T06:45:30.836Z,0.00
2018-07-16T06:46:30.903Z,0.00
2018-07-16T06:47:30.864Z,0.00
2018-07-16T06:48:30.895Z,0.00
2018-07-16T06:49:30.910Z,0.00
2018-07-16T06:50:30.986Z,0.00
2018-07-16T06:51:30.905Z,0.00
2018-07-16T06:52:30.914Z,0.00
2018-07-16T06:53:30.921Z,0.00
2018-07-16T06:54:30.959Z,0.00
2018-07-16T06:55:30.962Z,0.00
2018-07-16T06:56:31.065Z,0.00
2018-07-16T06:57:30.976Z,0.00
2018-07-16T06:58:30.988Z,0.00
2018-07-16T06:59:31.004Z,0.00
2018-07-16T07:00:31.016Z,0.00
2018-07-16T07:01:31.162Z,0.00
2018-07-16T07:02:31.040Z,0.00
2018-07-16T07:03:31.058Z,0.00
2018-07-16T07:04:31.057Z,0.00
2018-07-16T07:05:31.059Z,0.00
2018-07-16T07:06:31.081Z,0.00
2018-07-16T07:07:31.187Z,0.00
2018-07-16T07:08:31.094Z,0.00
2018-07-16T07:09:31.127Z,0.00
2018-07-16T07:10:31.115Z,0.00
2018-07-16T07:11:31.131Z,0.00
2018-07-16T07:12:31.232Z,0.00
2018-07-16T07:13:31.167Z,0.00
2018-07-16T07:14:31.185Z,0.00
2018-07-16T07:15:31.186Z,0.00
2018-07-16T07:16:31.222Z,0.00
2018-07-16T07:17:31.292Z,0.00
2018-07-16T07:18:31.187Z,0.00
2018-07-16T07:19:31.219Z,0.00
2018-07-16T07:20:31.216Z,0.00
2018-07-16T07:21:31.257Z,0.00
2018-07-16T07:22:31.273Z,0.00
2018-07-16T07:23:31.404Z,0.00
2018-07-16T07:24:31.253Z,0.00
2018-07-16T07:25:31.401Z,0.00
2018-07-16T07:26:31.333Z,0.00
2018-07-16T07:27:31.350Z,0.00
2018-07-16T07:28:31.417Z,0.00
2018-07-16T07:29:31.437Z,0.00
2018-07-16T07:30:31.340Z,0.00
2018-07-16T07:31:31.340Z,0.00
2018-07-16T07:32:31.349Z,0.00
2018-07-16T07:33:31.467Z,0.00
2018-07-16T07:34:31.395Z,0.00
2018-07-16T07:35:31.440Z,0.00
2018-07-16T07:36:31.405Z,0.00
2018-07-16T07:37:31.411Z,0.00
2018-07-16T07:38:31.520Z,0.00
2018-07-16T07:39:31.449Z,0.00
2018-07-16T07:40:31.441Z,0.00
2018-07-16T07:41:31.453Z,0.00
2018-07-16T07:42:31.469Z,0.00
2018-07-16T07:43:31.578Z,0.00
2018-07-16T07:44:31.477Z,0.00
2018-07-16T07:45:31.494Z,0.00
2018-07-16T07:46:31.518Z,0.00
2018-07-16T07:47:31.592Z,0.00
2018-07-16T07:48:31.633Z,0.00
2018-07-16T07:49:31.551Z,0.00
2018-07-16T07:50:31.539Z,0.00
2018-07-16T07:51:31.612Z,0.00
2018-07-16T07:52:31.567Z,0.00
2018-07-16T07:53:31.673Z,0.00
2018-07-16T07:54:31.673Z,0.00
2018-07-16T07:55:31.653Z,0.00
2018-07-16T07:56:31.610Z,0.00
2018-07-16T07:57:31.616Z,0.00
2018-07-16T07:58:31.737Z,0.00
2018-07-16T07:59:31.692Z,0.00
2018-07-16T08:00:31.658Z,0.00
2018-07-16T08:01:31.645Z,0.00
2018-07-16T08:02:31.675Z,0.00
2018-07-16T08:03:31.669Z,0.00
2018-07-16T08:04:31.773Z,0.00
2018-07-16T08:05:31.709Z,0.00
2018-07-16T08:06:31.706Z,0.00
2018-07-16T08:07:31.727Z,0.00
2018-07-16T08:08:31.781Z,0.00
2018-07-16T08:09:31.743Z,0.00
2018-07-16T08:10:31.842Z,0.00
2018-07-16T08:11:31.754Z,0.00
2018-07-16T08:12:31.891Z,0.00
2018-07-16T08:13:31.802Z,0.00
2018-07-16T08:14:31.812Z,0.00
2018-07-16T08:15:31.855Z,0.00
2018-07-16T08:16:31.928Z,0.00
2018-07-16T08:17:31.823Z,0.00
2018-07-16T08:18:31.864Z,0.00
2018-07-16T08:19:31.844Z,0.00
2018-07-16T08:20:31.853Z,0.00
2018-07-16T08:21:31.865Z,0.00
2018-07-16T08:22:31.985Z,0.00
2018-07-16T08:23:31.890Z,0.00
2018-07-16T08:24:31.908Z,0.00
2018-07-16T08:25:31.925Z,0.00
2018-07-16T08:26:31.911Z,0.00
2018-07-16T08:27:31.946Z,0.00
2018-07-16T08:28:32.073Z,0.00
2018-07-16T08:29:31.949Z,0.00
2018-07-16T08:30:31.950Z,0.00
2018-07-16T08:31:31.986Z,0.00
2018-07-16T08:32:31.972Z,0.00
2018-07-16T08:33:32.113Z,0.00
2018-07-16T08:34:32.008Z,0.00
2018-07-16T08:35:32.058Z,0.00
2018-07-16T08:36:32.031Z,0.00
2018-07-16T08:37:32.038Z,0.00
2018-07-16T08:38:32.063Z,0.00
2018-07-16T08:39:32.167Z,0.00
2018-07-16T08:40:32.052Z,0.00
2018-07-16T08:41:32.094Z,0.00
2018-07-16T08:42:32.086Z,0.00
2018-07-16T08:43:32.099Z,0.00
2018-07-16T08:44:32.209Z,0.00
2018-07-16T08:45:32.119Z,0.00
2018-07-16T08:46:32.138Z,0.00
2018-07-16T08:47:32.153Z,0.00
2018-07-16T08:48:32.158Z,0.00
2018-07-16T08:49:32.248Z,0.00
2018-07-16T08:50:32.184Z,0.00
2018-07-16T08:51:32.291Z,0.00
2018-07-16T08:52:32.194Z,0.00
2018-07-16T08:53:32.212Z,0.00
2018-07-16T08:54:32.317Z,0.00
2018-07-16T08:55:32.210Z,0.00
2018-07-16T08:56:32.228Z,0.00
2018-07-16T08:57:32.232Z,0.00
2018-07-16T08:58:32.257Z,0.00
2018-07-16T08:59:32.340Z,0.00
2018-07-16T09:00:32.281Z,0.00
2018-07-16T09:01:32.278Z,0.00
2018-07-16T09:02:32.333Z,0.00
2018-07-16T09:03:32.313Z,0.00
2018-07-16T09:04:32.422Z,0.00
2018-07-16T09:05:32.359Z,0.00
2018-07-16T09:06:32.330Z,0.00
2018-07-16T09:07:32.359Z,0.00
2018-07-16T09:08:32.357Z,0.00
2018-07-16T09:09:32.466Z,0.00
2018-07-16T09:10:32.386Z,0.00
2018-07-16T09:11:32.382Z,0.00
2018-07-16T09:12:32.411Z,0.00
2018-07-16T09:13:32.403Z,0.00
2018-07-16T09:14:32.497Z,0.00
2018-07-16T09:15:32.479Z,0.00
2018-07-16T09:16:32.443Z,0.00
2018-07-16T09:17:32.448Z,0.00
2018-07-16T09:18:32.452Z,0.00
2018-07-16T09:19:32.458Z,4.00
2018-07-16T09:20:32.588Z,0.00
2018-07-16T09:21:32.507Z,4.00
2018-07-16T09:22:32.495Z,0.00
2018-07-16T09:23:32.525Z,0.00
2018-07-16T09:24:32.508Z,4.00
2018-07-16T09:25:32.681Z,4.00
2018-07-16T09:26:32.535Z,4.00
2018-07-16T09:27:32.530Z,4.00
2018-07-16T09:28:32.553Z,8.00
2018-07-16T09:29:32.610Z,12.00
2018-07-16T09:30:32.673Z,16.00
2018-07-16T09:31:32.605Z,20.00
2018-07-16T09:32:32.605Z,28.00
2018-07-16T09:33:32.619Z,32.00
2018-07-16T09:34:32.644Z,40.00
2018-07-16T09:35:32.743Z,48.00
2018-07-16T09:36:32.629Z,60.00
2018-07-16T09:37:32.653Z,68.00
2018-07-16T09:38:32.672Z,84.00
2018-07-16T09:39:32.666Z,100.00
2018-07-16T09:40:32.776Z,120.00
2018-07-16T09:41:32.678Z,144.00
2018-07-16T09:42:32.703Z,164.00
2018-07-16T09:43:32.764Z,192.00
2018-07-16T09:44:32.831Z,220.00
2018-07-16T09:45:32.839Z,252.00
2018-07-16T09:46:32.757Z,280.00
2018-07-16T09:47:32.759Z,320.00
2018-07-16T09:48:32.764Z,360.00
2018-07-16T09:49:32.752Z,400.00
2018-07-16T09:50:32.868Z,448.00
2018-07-16T09:51:32.795Z,492.00
2018-07-16T09:52:32.781Z,548.00
2018-07-16T09:53:32.798Z,604.00
2018-07-16T09:54:32.832Z,660.00
2018-07-16T09:55:32.990Z,724.00
2018-07-16T09:56:32.916Z,788.00
2018-07-16T09:57:32.841Z,856.00
2018-07-16T09:58:32.979Z,928.00
2018-07-16T09:59:32.857Z,1004.00
2018-07-16T10:00:32.982Z,1080.00
2018-07-16T10:01:32.874Z,1164.00
2018-07-16T10:02:32.888Z,1248.00
2018-07-16T10:03:32.923Z,1340.00
2018-07-16T10:04:32.937Z,1428.00
2018-07-16T10:05:32.945Z,1516.00
2018-07-16T10:06:33.033Z,1608.00
2018-07-16T10:07:33.000Z,1700.00
2018-07-16T10:08:33.139Z,1808.00
2018-07-16T10:09:32.993Z,1912.00
2018-07-16T10:10:32.986Z,2056.00
2018-07-16T10:11:32.998Z,2736.00
2018-07-16T10:12:33.143Z,4148.00
2018-07-16T10:13:33.004Z,5032.00
2018-07-16T10:14:33.139Z,5356.00
2018-07-16T10:15:33.023Z,5784.00
2018-07-16T10:16:33.047Z,6168.00
2018-07-16T10:17:33.211Z,6456.00
2018-07-16T10:18:33.064Z,6860.00
2018-07-16T10:19:33.081Z,7216.00
2018-07-16T10:20:33.144Z,7536.00
2018-07-16T10:21:33.119Z,8004.00
2018-07-16T10:22:33.211Z,8384.00
2018-07-16T10:23:33.110Z,8796.00
2018-07-16T10:24:33.158Z,9152.00
2018-07-16T10:25:33.150Z,9560.00
2018-07-16T10:26:33.152Z,9964.00
2018-07-16T10:27:33.273Z,10392.00
2018-07-16T10:28:33.291Z,10708.00
2018-07-16T10:29:33.303Z,11156.00
2018-07-16T10:30:33.213Z,11616.00
2018-07-16T10:31:33.252Z,11904.00
2018-07-16T10:32:33.333Z,12352.00
2018-07-16T10:33:33.235Z,12640.00
2018-07-16T10:34:33.262Z,13024.00
2018-07-16T10:35:33.253Z,13440.00
2018-07-16T10:36:33.283Z,13728.00
2018-07-16T10:37:33.406Z,14112.00
2018-07-16T10:38:33.304Z,14528.00
2018-07-16T10:39:33.320Z,14816.00
2018-07-16T10:40:33.373Z,14944.00
2018-07-16T10:41:33.354Z,15456.00
2018-07-16T10:42:33.498Z,15808.00
2018-07-16T10:43:33.381Z,16096.00
2018-07-16T10:44:33.393Z,16480.00
2018-07-16T10:45:33.393Z,16768.00
2018-07-16T10:46:33.399Z,16864.00
2018-07-16T10:47:33.542Z,17184.00
2018-07-16T10:48:33.435Z,17408.00
2018-07-16T10:49:33.471Z,17632.00
2018-07-16T10:50:33.455Z,17952.00
2018-07-16T10:51:33.473Z,18080.00
2018-07-16T10:52:33.653Z,18432.00
2018-07-16T10:53:33.550Z,18720.00
2018-07-16T10:54:33.511Z,18816.00
2018-07-16T10:55:33.545Z,18976.00
2018-07-16T10:56:33.597Z,19200.00
2018-07-16T10:57:33.684Z,19520.00
2018-07-16T10:58:33.606Z,19680.00
2018-07-16T10:59:33.615Z,20096.00
2018-07-16T11:00:33.629Z,20544.00
2018-07-16T11:01:33.643Z,20704.00
2018-07-16T11:02:33.755Z,21184.00
2018-07-16T11:03:33.673Z,21152.00
2018-07-16T11:04:33.694Z,21568.00
2018-07-16T11:05:33.795Z,21792.00
2018-07-16T11:06:33.725Z,21728.00
2018-07-16T11:07:33.833Z,21920.00
2018-07-16T11:08:33.749Z,22080.00
2018-07-16T11:09:33.770Z,22112.00
2018-07-16T11:10:33.773Z,22464.00
2018-07-16T11:11:33.809Z,22784.00
2018-07-16T11:12:33.903Z,22944.00
2018-07-16T11:13:33.833Z,23168.00
2018-07-16T11:14:33.844Z,23264.00
2018-07-16T11:15:33.868Z,23552.00
2018-07-16T11:16:33.862Z,23936.00
2018-07-16T11:17:33.919Z,24128.00
2018-07-16T11:18:34.021Z,24288.00
2018-07-16T11:19:33.947Z,24448.00
2018-07-16T11:20:33.967Z,24608.00
2018-07-16T11:21:33.978Z,24672.00
2018-07-16T11:22:33.974Z,24928.00
2018-07-16T11:23:34.161Z,25312.00
2018-07-16T11:24:34.038Z,25504.00
2018-07-16T11:25:34.065Z,25696.00
2018-07-16T11:26:34.070Z,25888.00
2018-07-16T11:27:34.110Z,26080.00
2018-07-16T11:28:34.112Z,26208.00
2018-07-16T11:29:34.306Z,26208.00
2018-07-16T11:30:34.174Z,26464.00
2018-07-16T11:31:34.178Z,26560.00
2018-07-16T11:32:34.178Z,26496.00
2018-07-16T11:33:34.195Z,26816.00
2018-07-16T11:34:34.195Z,27136.00
2018-07-16T11:35:34.397Z,27328.00
2018-07-16T11:36:34.243Z,27680.00
2018-07-16T11:37:34.254Z,27968.00
2018-07-16T11:38:34.280Z,28032.00
2018-07-16T11:39:34.302Z,28128.00
2018-07-16T11:40:34.468Z,28480.00
2018-07-16T11:41:34.328Z,28480.00
2018-07-16T11:42:34.350Z,28800.00
2018-07-16T11:43:34.361Z,29056.00
2018-07-16T11:44:34.388Z,29024.00
2018-07-16T11:45:34.548Z,28992.00
2018-07-16T11:46:34.433Z,29088.00
2018-07-16T11:47:34.484Z,29664.00
2018-07-16T11:48:34.467Z,29600.00
2018-07-16T11:49:34.490Z,29824.00
2018-07-16T11:50:34.614Z,29888.00
2018-07-16T11:51:34.524Z,30144.00
2018-07-16T11:52:34.534Z,30272.00
2018-07-16T11:53:34.562Z,26144.00
2018-07-16T11:54:34.592Z,29536.00
2018-07-16T11:55:34.709Z,25696.00
2018-07-16T11:56:34.623Z,28000.00
2018-07-16T11:57:34.626Z,20864.00
2018-07-16T11:58:34.677Z,17600.00
2018-07-16T11:59:34.705Z,30624.00
2018-07-16T12:00:34.815Z,13160.00
2018-07-16T12:01:34.728Z,12192.00
2018-07-16T12:02:34.732Z,18016.00
2018-07-16T12:03:34.804Z,24704.00
2018-07-16T12:04:34.795Z,30848.00
2018-07-16T12:05:34.948Z,14844.00
2018-07-16T12:06:34.865Z,9584.00
2018-07-16T12:07:34.899Z,17600.00
2018-07-16T12:08:34.856Z,11064.00
2018-07-16T12:09:34.862Z,10176.00
2018-07-16T12:10:34.954Z,9848.00
2018-07-16T12:11:35.060Z,8980.00
2018-07-16T12:12:34.942Z,14752.00
2018-07-16T12:13:34.954Z,21088.00
2018-07-16T12:14:34.968Z,21120.00
2018-07-16T12:15:35.017Z,16704.00
2018-07-16T12:16:35.216Z,28640.00
2018-07-16T12:17:35.017Z,26112.00
2018-07-16T12:18:35.064Z,20896.00
2018-07-16T12:19:35.080Z,10988.00
2018-07-16T12:20:35.219Z,13772.00
2018-07-16T12:21:35.196Z,21312.00
2018-07-16T12:22:35.116Z,12580.00
2018-07-16T12:23:35.139Z,29056.00
2018-07-16T12:24:35.171Z,10504.00
2018-07-16T12:25:35.201Z,36832.00
2018-07-16T12:26:35.335Z,34240.00
2018-07-16T12:27:35.227Z,30048.00
2018-07-16T12:28:35.244Z,15360.00
2018-07-16T12:29:35.279Z,8136.00
2018-07-16T12:30:35.286Z,8616.00
2018-07-16T12:31:35.408Z,27840.00
2018-07-16T12:32:35.353Z,19168.00
2018-07-16T12:33:35.345Z,35424.00
2018-07-16T12:34:35.357Z,26656.00
2018-07-16T12:35:35.382Z,32640.00
2018-07-16T12:36:35.492Z,32768.00
2018-07-16T12:37:35.403Z,24224.00
2018-07-16T12:38:35.426Z,13044.00
2018-07-16T12:39:35.448Z,18560.00
2018-07-16T12:40:35.485Z,29600.00
2018-07-16T12:41:35.750Z,35008.00
2018-07-16T12:42:35.484Z,53600.00
2018-07-16T12:43:35.510Z,53120.00
2018-07-16T12:44:35.527Z,25696.00
2018-07-16T12:45:35.582Z,37664.00
2018-07-16T12:46:35.713Z,24192.00
2018-07-16T12:47:35.592Z,34016.00
2018-07-16T12:48:35.598Z,12208.00
2018-07-16T12:49:35.635Z,10900.00
2018-07-16T12:50:35.635Z,10296.00
2018-07-16T12:51:35.813Z,28320.00
2018-07-16T12:52:35.678Z,10232.00
2018-07-16T12:53:35.686Z,13492.00
2018-07-16T12:54:35.730Z,21824.00
2018-07-16T12:55:35.873Z,14304.00
2018-07-16T12:56:35.901Z,22272.00